Time;durP1;ratioP1;P1;durP2;ratioP2;P2;SDS_P1;SDS_P2;PMS_P1;PMS_P2;Temp;Humidity;BMP_temperature;BMP_pressure;BME280_temperature;BME280_humidity;BME280_pressure;Samples;Min_cycle;Max_cycle;Signal;HPM_P1;HPM_P2
2022/04/06 00:01:09;;;;;;;9.73;5.43;;;;;;;;;;4954858;28;20054;-63
2022/04/06 00:03:43;;;;;;;8.50;5.53;;;;;;;;;;4955155;28;20047;-64
2022/04/06 00:06:11;;;;;;;9.80;5.25;;;;;;;;;;4954502;28;20158;-63
2022/04/06 00:08:38;;;;;;;7.22;5.40;;;;;;;;;;4956398;28;20043;-63
2022/04/06 00:11:14;;;;;;;8.43;5.60;;;;;;;;;;4958662;28;20043;-63
2022/04/06 00:16:50;;;;;;;9.80;5.15;;;;;;;;;;4958528;28;20288;-63
2022/04/06 00:19:39;;;;;;;8.75;5.57;;;;;;;;;;4957837;28;20039;-63
2022/04/06 00:22:12;;;;;;;8.40;5.30;;;;;;;;;;4958097;28;20082;-63
2022/04/06 00:24:39;;;;;;;8.50;5.40;;;;;;;;;;4958514;29;20498;-63
2022/04/06 00:27:07;;;;;;;8.63;5.38;;;;;;;;;;4958691;28;20035;-64
2022/04/06 00:29:46;;;;;;;8.40;5.25;;;;;;;;;;4957970;28;20406;-63
2022/04/06 00:32:14;;;;;;;10.05;5.70;;;;;;;;;;4957976;28;20055;-63
2022/04/06 00:37:53;;;;;;;8.77;5.53;;;;;;;;;;4956943;29;20481;-63
2022/04/06 00:40:26;;;;;;;8.23;5.32;;;;;;;;;;4958154;28;20043;-63
2022/04/06 00:42:54;;;;;;;8.25;5.40;;;;;;;;;;4957849;28;20097;-63
2022/04/06 00:45:27;;;;;;;7.03;5.40;;;;;;;;;;4958039;28;20047;-63
2022/04/06 00:47:55;;;;;;;9.80;5.68;;;;;;;;;;4957750;28;20082;-63
2022/04/06 00:50:25;;;;;;;7.63;5.10;;;;;;;;;;4957822;28;20043;-63
2022/04/06 00:52:57;;;;;;;8.77;5.25;;;;;;;;;;4958001;28;20047;-63
2022/04/06 00:55:29;;;;;;;8.27;5.75;;;;;;;;;;4958056;28;20047;-63
2022/04/06 00:58:03;;;;;;;11.00;6.85;;;;;;;;;;4957756;28;20035;-63
2022/04/06 01:00:38;;;;;;;10.13;5.60;;;;;;;;;;4957578;28;20047;-63
2022/04/06 01:03:05;;;;;;;8.55;5.13;;;;;;;;;;4957710;28;20297;-64
2022/04/06 01:05:42;;;;;;;9.93;5.40;;;;;;;;;;4957773;28;20055;-63
2022/04/06 01:08:13;;;;;;;8.02;5.45;;;;;;;;;;4957506;28;20051;-63
2022/04/06 01:10:40;;;;;;;12.07;5.60;;;;;;;;;;4957924;28;20067;-63
2022/04/06 01:13:13;;;;;;;11.25;5.88;;;;;;;;;;4957889;28;20108;-63
2022/04/06 01:15:47;;;;;;;11.02;5.20;;;;;;;;;;4957802;28;20043;-63
2022/04/06 01:18:17;;;;;;;9.27;5.35;;;;;;;;;;4957695;28;20031;-64
2022/04/06 01:20:46;;;;;;;9.98;5.13;;;;;;;;;;4956041;28;20498;-64
2022/04/06 01:23:16;;;;;;;9.48;5.40;;;;;;;;;;4957345;28;20047;-64
2022/04/06 01:25:50;;;;;;;7.88;5.10;;;;;;;;;;4957728;28;20043;-63
2022/04/06 01:28:19;;;;;;;13.07;6.07;;;;;;;;;;4957109;28;20138;-63
2022/04/06 01:30:50;;;;;;;11.38;5.55;;;;;;;;;;4957351;28;20130;-64
2022/04/06 01:33:18;;;;;;;9.93;4.82;;;;;;;;;;4956969;28;20059;-64
2022/04/06 01:35:49;;;;;;;9.15;5.57;;;;;;;;;;4957059;28;20043;-64
2022/04/06 01:38:18;;;;;;;7.63;5.70;;;;;;;;;;4957107;28;20039;-64
2022/04/06 01:40:46;;;;;;;9.55;5.25;;;;;;;;;;4957302;28;20533;-64
2022/04/06 01:43:18;;;;;;;8.77;4.95;;;;;;;;;;4957087;28;20047;-64
2022/04/06 01:45:52;;;;;;;8.82;5.43;;;;;;;;;;4956933;28;20490;-64
2022/04/06 01:48:20;;;;;;;9.40;5.75;;;;;;;;;;4957072;28;20047;-65
2022/04/06 01:53:37;;;;;;;9.27;5.72;;;;;;;;;;4957067;29;20099;-64
2022/04/06 01:56:10;;;;;;;12.85;6.00;;;;;;;;;;4956831;28;20070;-64
2022/04/06 01:58:38;;;;;;;12.45;6.15;;;;;;;;;;4956908;28;20466;-64
2022/04/06 02:01:10;;;;;;;11.80;5.82;;;;;;;;;;4956848;28;20122;-64
2022/04/06 02:03:38;;;;;;;12.73;6.15;;;;;;;;;;4956492;28;20050;-64
2022/04/06 02:06:13;;;;;;;11.02;5.93;;;;;;;;;;4956571;28;20513;-64
2022/04/06 02:08:44;;;;;;;;;;;;;;;;;;4957156;28;20047;-64
2022/04/06 02:11:16;;;;;;;9.65;6.20;;;;;;;;;;4956543;28;19939;-64
2022/04/06 02:13:43;;;;;;;9.95;6.07;;;;;;;;;;4956794;28;20050;-64
2022/04/06 02:16:37;;;;;;;8.38;5.90;;;;;;;;;;4956688;28;20054;-64
2022/04/06 02:19:08;;;;;;;10.77;5.90;;;;;;;;;;4956560;28;20513;-64
2022/04/06 02:21:39;;;;;;;9.07;6.10;;;;;;;;;;4956116;28;20050;-63
2022/04/06 02:24:08;;;;;;;9.63;6.07;;;;;;;;;;4956084;28;20047;-64
2022/04/06 02:26:39;;;;;;;9.80;5.95;;;;;;;;;;4956002;28;20492;-63
2022/04/06 02:29:31;;;;;;;11.30;6.55;;;;;;;;;;4956199;28;20043;-63
2022/04/06 02:31:59;;;;;;;9.55;6.32;;;;;;;;;;4955346;28;20059;-63
2022/04/06 02:34:29;;;;;;;10.73;6.47;;;;;;;;;;4956290;28;20047;-64
2022/04/06 02:36:58;;;;;;;8.00;5.50;;;;;;;;;;4955878;28;20119;-64
2022/04/06 02:39:28;;;;;;;8.90;5.90;;;;;;;;;;4956048;28;20046;-64
2022/04/06 02:41:57;;;;;;;11.48;6.35;;;;;;;;;;4955880;28;20047;-63
2022/04/06 02:44:29;;;;;;;10.68;6.47;;;;;;;;;;4955918;28;20039;-64
2022/04/06 02:46:56;;;;;;;9.70;6.18;;;;;;;;;;4955623;28;20054;-64
2022/04/06 02:49:29;;;;;;;10.95;5.93;;;;;;;;;;4956353;28;20047;-63
2022/04/06 02:52:01;;;;;;;9.68;6.88;;;;;;;;;;4955982;28;20047;-64
2022/04/06 02:54:29;;;;;;;11.07;6.70;;;;;;;;;;4955635;28;20055;-64
2022/04/06 02:56:57;;;;;;;11.10;6.80;;;;;;;;;;4955844;28;20414;-63
2022/04/06 02:59:31;;;;;;;10.15;6.70;;;;;;;;;;4955941;28;20044;-63
2022/04/06 03:01:59;;;;;;;9.90;7.45;;;;;;;;;;4955633;28;20058;-63
2022/04/06 03:04:31;;;;;;;12.32;7.35;;;;;;;;;;4955879;28;20078;-63
2022/04/06 03:07:00;;;;;;;12.13;7.50;;;;;;;;;;4955712;28;20410;-63
2022/04/06 03:09:30;;;;;;;11.43;7.10;;;;;;;;;;4955852;28;20518;-64
2022/04/06 03:11:59;;;;;;;12.05;8.02;;;;;;;;;;4955618;28;20039;-63
2022/04/06 03:14:33;;;;;;;16.45;7.10;;;;;;;;;;4955311;28;20054;-63
2022/04/06 03:17:02;;;;;;;15.48;7.03;;;;;;;;;;4955066;28;20075;-64
2022/04/06 03:19:31;;;;;;;11.48;7.10;;;;;;;;;;4955658;28;20094;-64
2022/04/06 03:22:04;;;;;;;15.07;7.50;;;;;;;;;;4955328;28;20047;-63
2022/04/06 03:24:35;;;;;;;17.92;7.78;;;;;;;;;;4955290;28;20051;-64
2022/04/06 03:27:03;;;;;;;14.32;7.45;;;;;;;;;;4955538;28;20082;-63
2022/04/06 03:29:33;;;;;;;14.38;7.72;;;;;;;;;;4955087;28;20044;-63
2022/04/06 03:32:00;;;;;;;13.32;8.48;;;;;;;;;;4955170;28;20059;-64
2022/04/06 03:34:28;;;;;;;14.48;8.77;;;;;;;;;;4954668;28;20102;-64
2022/04/06 03:36:58;;;;;;;14.57;7.88;;;;;;;;;;4955298;28;20047;-64
2022/04/06 03:39:25;;;;;;;14.10;8.02;;;;;;;;;;4955215;28;20090;-64
2022/04/06 03:42:00;;;;;;;13.98;7.25;;;;;;;;;;4955165;28;20039;-64
2022/04/06 03:44:28;;;;;;;14.25;7.82;;;;;;;;;;4958047;28;20050;-64
2022/04/06 03:46:56;;;;;;;15.25;7.45;;;;;;;;;;4958641;28;20043;-64
2022/04/06 03:49:30;;;;;;;17.33;8.15;;;;;;;;;;4959034;28;20167;-63
2022/04/06 03:51:59;;;;;;;17.23;7.85;;;;;;;;;;4958991;28;20039;-64
2022/04/06 03:54:28;;;;;;;15.13;7.65;;;;;;;;;;4959351;28;20040;-64
2022/04/06 03:57:00;;;;;;;14.98;8.35;;;;;;;;;;4959083;28;20050;-64
2022/04/06 03:59:33;;;;;;;16.75;8.23;;;;;;;;;;4958683;28;20098;-64
2022/04/06 04:02:01;;;;;;;16.90;9.57;;;;;;;;;;4958736;28;20074;-64
2022/04/06 04:04:29;;;;;;;19.42;9.07;;;;;;;;;;4958735;28;20040;-64
2022/04/06 04:06:58;;;;;;;20.58;9.68;;;;;;;;;;4958707;28;20059;-65
2022/04/06 04:09:29;;;;;;;20.20;9.98;;;;;;;;;;4959114;28;20086;-64
2022/04/06 04:11:59;;;;;;;19.98;10.23;;;;;;;;;;4958775;28;20055;-64
2022/04/06 04:14:29;;;;;;;13.68;9.18;;;;;;;;;;4958906;28;20047;-64
2022/04/06 04:17:28;;;;;;;11.90;7.82;;;;;;;;;;4958833;28;20401;-64
2022/04/06 04:19:55;;;;;;;15.98;9.93;;;;;;;;;;4958539;28;20043;-64
2022/04/06 04:22:25;;;;;;;18.13;9.98;;;;;;;;;;4939437;28;20036;-64
2022/04/06 04:24:57;;;;;;;16.73;9.43;;;;;;;;;;4939548;28;20099;-64
2022/04/06 04:27:24;;;;;;;17.17;11.18;;;;;;;;;;4938104;29;20052;-66
2022/04/06 04:29:52;;;;;;;13.82;8.90;;;;;;;;;;4938027;28;20059;-63
2022/04/06 04:32:20;;;;;;;17.65;9.30;;;;;;;;;;4938036;29;20060;-63
2022/04/06 04:34:48;;;;;;;16.73;10.00;;;;;;;;;;4938992;28;20075;-63
2022/04/06 04:37:17;;;;;;;18.92;9.70;;;;;;;;;;4938991;28;20381;-63
2022/04/06 04:39:46;;;;;;;12.10;7.55;;;;;;;;;;4938744;29;20086;-63
2022/04/06 04:42:13;;;;;;;16.50;8.43;;;;;;;;;;4938980;29;20135;-63
2022/04/06 04:44:44;;;;;;;16.52;9.13;;;;;;;;;;4938645;29;20044;-63
2022/04/06 04:47:17;;;;;;;23.00;9.50;;;;;;;;;;4938803;29;20048;-63
2022/04/06 04:49:45;;;;;;;14.65;8.80;;;;;;;;;;4937508;29;20134;-63
2022/04/06 04:52:13;;;;;;;15.05;8.85;;;;;;;;;;4938429;29;20517;-63
2022/04/06 04:54:40;;;;;;;18.77;10.15;;;;;;;;;;4937660;29;20044;-63
2022/04/06 04:57:09;;;;;;;15.90;9.50;;;;;;;;;;4949048;29;20040;-64
2022/04/06 04:59:37;;;;;;;18.35;11.00;;;;;;;;;;4949368;28;20457;-63
2022/04/06 05:02:06;;;;;;;15.57;10.65;;;;;;;;;;4944363;28;20518;-63
2022/04/06 05:04:33;;;;;;;23.30;11.95;;;;;;;;;;4938484;29;20454;-63
2022/04/06 05:07:03;;;;;;;14.00;9.27;;;;;;;;;;4939104;29;20058;-64
2022/04/06 05:09:34;;;;;;;16.40;10.05;;;;;;;;;;4938598;29;20538;-63
2022/04/06 05:12:01;;;;;;;20.40;10.75;;;;;;;;;;4938321;29;20079;-63
2022/04/06 05:14:33;;;;;;;25.13;14.15;;;;;;;;;;4938235;29;20047;-64
2022/04/06 05:17:01;;;;;;;30.45;17.15;;;;;;;;;;4938404;29;20435;-64
2022/04/06 05:19:30;;;;;;;26.90;15.00;;;;;;;;;;4938065;29;20051;-65
2022/04/06 05:21:59;;;;;;;32.13;19.00;;;;;;;;;;4938153;29;20067;-65
2022/04/06 05:24:29;;;;;;;38.17;21.50;;;;;;;;;;4937049;29;20054;-65
2022/04/06 05:27:00;;;;;;;33.45;18.85;;;;;;;;;;4938256;29;20067;-64
2022/04/06 05:29:31;;;;;;;17.38;13.38;;;;;;;;;;4938216;29;20055;-64
2022/04/06 05:31:58;;;;;;;19.23;12.48;;;;;;;;;;4937357;29;20131;-64
2022/04/06 05:34:26;;;;;;;18.50;12.90;;;;;;;;;;4937497;28;20067;-64
2022/04/06 05:36:55;;;;;;;21.55;12.88;;;;;;;;;;4938805;28;20048;-64
2022/04/06 05:39:23;;;;;;;27.63;15.57;;;;;;;;;;4938591;29;20454;-65
2022/04/06 05:41:52;;;;;;;21.88;14.50;;;;;;;;;;4952470;29;20050;-65
2022/04/06 05:44:21;;;;;;;23.08;14.80;;;;;;;;;;4937809;29;20063;-65
2022/04/06 05:46:56;;;;;;;20.92;12.15;;;;;;;;;;4937836;28;20091;-65
2022/04/06 05:49:24;;;;;;;16.45;11.35;;;;;;;;;;4937760;29;20071;-62
2022/04/06 05:51:53;;;;;;;14.73;10.02;;;;;;;;;;4937642;29;20054;-63
2022/04/06 05:54:26;;;;;;;16.08;11.13;;;;;;;;;;4937638;29;20052;-63
2022/04/06 05:56:53;;;;;;;16.63;11.02;;;;;;;;;;4938374;28;20436;-63
2022/04/06 05:59:21;;;;;;;17.48;10.38;;;;;;;;;;4937667;29;20398;-65
2022/04/06 06:01:56;;;;;;;15.50;10.05;;;;;;;;;;4937622;29;20491;-63
2022/04/06 06:04:24;;;;;;;12.55;8.30;;;;;;;;;;4937501;29;20509;-63
2022/04/06 06:06:54;;;;;;;10.27;8.38;;;;;;;;;;4936790;29;20113;-66
2022/04/06 06:09:33;;;;;;;12.77;8.15;;;;;;;;;;4937455;29;20044;-65
2022/04/06 06:12:05;;;;;;;12.00;7.88;;;;;;;;;;4937713;29;20047;-63
2022/04/06 06:14:33;;;;;;;10.82;8.02;;;;;;;;;;4937563;29;20047;-64
2022/04/06 06:17:02;;;;;;;13.27;8.68;;;;;;;;;;4937202;29;20055;-64
2022/04/06 06:19:34;;;;;;;9.93;7.80;;;;;;;;;;4937133;29;20047;-64
2022/04/06 06:22:02;;;;;;;12.02;8.43;;;;;;;;;;4937317;28;20048;-63
2022/04/06 06:24:55;;;;;;;9.77;7.78;;;;;;;;;;4936908;29;20043;-63
2022/04/06 06:27:29;;;;;;;16.05;12.40;;;;;;;;;;4937342;29;20447;-63
2022/04/06 06:29:57;;;;;;;27.75;21.35;;;;;;;;;;4936782;28;20054;-63
2022/04/06 06:32:25;;;;;;;10.43;8.25;;;;;;;;;;4936458;29;20159;-63
2022/04/06 06:34:52;;;;;;;15.45;9.57;;;;;;;;;;4936913;29;20075;-64
2022/04/06 06:37:22;;;;;;;15.52;9.45;;;;;;;;;;4936978;29;20065;-64
2022/04/06 06:39:54;;;;;;;147.07;16.88;;;;;;;;;;4936967;29;20043;-64
2022/04/06 06:42:27;;;;;;;11.25;8.63;;;;;;;;;;4937044;29;20039;-64
2022/04/06 06:44:54;;;;;;;10.38;7.88;;;;;;;;;;4936713;29;20495;-63
2022/04/06 06:47:24;;;;;;;14.57;8.48;;;;;;;;;;4937019;29;20066;-64
2022/04/06 06:49:55;;;;;;;9.85;7.78;;;;;;;;;;4936737;29;20048;-64
2022/04/06 06:52:23;;;;;;;13.60;8.23;;;;;;;;;;4936792;29;20074;-64
2022/04/06 06:54:52;;;;;;;15.23;8.32;;;;;;;;;;4936397;28;20036;-64
2022/04/06 06:57:24;;;;;;;8.68;7.65;;;;;;;;;;4936821;29;20099;-64
2022/04/06 06:59:51;;;;;;;9.85;7.95;;;;;;;;;;4936849;29;20151;-64
2022/04/06 07:02:21;;;;;;;10.18;7.45;;;;;;;;;;4936591;29;20048;-65
2022/04/06 07:04:56;;;;;;;12.48;7.68;;;;;;;;;;4936820;29;20459;-65
2022/04/06 07:07:24;;;;;;;11.27;7.57;;;;;;;;;;4936627;29;20048;-65
2022/04/06 07:09:54;;;;;;;11.05;7.68;;;;;;;;;;4936585;29;20163;-64
2022/04/06 07:12:26;;;;;;;9.10;7.18;;;;;;;;;;4936653;28;20044;-65
2022/04/06 07:14:55;;;;;;;8.90;8.00;;;;;;;;;;4936656;29;20089;-65
2022/04/06 07:17:25;;;;;;;8.75;7.30;;;;;;;;;;4936012;29;20043;-64
2022/04/06 07:19:56;;;;;;;11.85;8.27;;;;;;;;;;4936455;29;20103;-64
2022/04/06 07:22:25;;;;;;;10.15;7.80;;;;;;;;;;4936572;29;20052;-64
2022/04/06 07:24:54;;;;;;;9.13;7.47;;;;;;;;;;4935896;28;20047;-64
2022/04/06 07:27:49;;;;;;;10.30;7.78;;;;;;;;;;4936475;29;20071;-64
2022/04/06 07:30:17;;;;;;;9.27;7.78;;;;;;;;;;4934489;29;20051;-64
2022/04/06 07:32:46;;;;;;;10.10;7.95;;;;;;;;;;4935841;28;20062;-64
2022/04/06 07:35:16;;;;;;;11.32;8.18;;;;;;;;;;4936352;29;20130;-64
2022/04/06 07:37:48;;;;;;;12.90;8.07;;;;;;;;;;4936447;29;20382;-64
2022/04/06 07:40:21;;;;;;;9.73;8.23;;;;;;;;;;4936022;29;20554;-64
2022/04/06 07:42:52;;;;;;;20.43;10.93;;;;;;;;;;4936068;29;20047;-64
2022/04/06 07:45:24;;;;;;;11.10;7.50;;;;;;;;;;4936175;28;20329;-64
2022/04/06 07:47:54;;;;;;;11.68;7.75;;;;;;;;;;4936075;29;20044;-63
2022/04/06 07:50:24;;;;;;;9.02;7.80;;;;;;;;;;4935710;28;20142;-63
2022/04/06 07:52:58;;;;;;;10.02;7.20;;;;;;;;;;4935868;29;20044;-64
2022/04/06 07:55:27;;;;;;;15.35;9.82;;;;;;;;;;4936182;29;20396;-64
2022/04/06 07:57:56;;;;;;;13.07;8.45;;;;;;;;;;4936042;28;20039;-64
2022/04/06 08:00:33;;;;;;;10.57;7.40;;;;;;;;;;4936185;29;20059;-64
2022/04/06 08:03:06;;;;;;;17.88;14.27;;;;;;;;;;4935648;28;20499;-64
2022/04/06 08:05:35;;;;;;;11.70;7.75;;;;;;;;;;4936326;29;20103;-65
2022/04/06 08:08:05;;;;;;;9.40;7.07;;;;;;;;;;4935550;29;20040;-64
2022/04/06 08:10:38;;;;;;;17.60;7.55;;;;;;;;;;4935680;29;20511;-64
2022/04/06 08:13:07;;;;;;;11.95;7.05;;;;;;;;;;4935328;29;20521;-64
2022/04/06 08:15:40;;;;;;;9.48;6.78;;;;;;;;;;4947688;29;20044;-63
2022/04/06 08:18:11;;;;;;;9.80;7.60;;;;;;;;;;4954792;28;20043;-63
2022/04/06 08:20:43;;;;;;;9.52;7.18;;;;;;;;;;4954890;28;20043;-65
2022/04/06 08:23:20;;;;;;;10.05;6.90;;;;;;;;;;4954652;28;20058;-63
2022/04/06 08:25:49;;;;;;;12.00;6.70;;;;;;;;;;4955055;28;20126;-62
2022/04/06 08:28:18;;;;;;;7.43;6.40;;;;;;;;;;4954665;28;20371;-62
2022/04/06 08:30:47;;;;;;;9.40;7.38;;;;;;;;;;4957945;28;20050;-65
2022/04/06 08:33:22;;;;;;;9.90;6.50;;;;;;;;;;4958247;28;20047;-63
2022/04/06 08:35:54;;;;;;;9.55;6.75;;;;;;;;;;4958400;28;20043;-63
2022/04/06 08:38:24;;;;;;;10.82;6.38;;;;;;;;;;4958033;28;20114;-63
2022/04/06 08:40:56;;;;;;;9.60;6.30;;;;;;;;;;4958458;28;20090;-65
2022/04/06 08:43:25;;;;;;;7.85;6.38;;;;;;;;;;4958255;28;20051;-64
2022/04/06 08:45:54;;;;;;;10.68;7.25;;;;;;;;;;4957793;28;20043;-65
2022/04/06 08:48:28;;;;;;;8.57;6.50;;;;;;;;;;4958656;28;20073;-65
2022/04/06 08:51:00;;;;;;;10.40;6.50;;;;;;;;;;4958297;28;20127;-65
2022/04/06 08:53:29;;;;;;;10.75;7.05;;;;;;;;;;4957729;28;20039;-63
2022/04/06 08:56:00;;;;;;;9.25;6.55;;;;;;;;;;4958184;28;20062;-63
2022/04/06 08:58:29;;;;;;;9.32;6.68;;;;;;;;;;4958044;28;20082;-64
2022/04/06 09:00:57;;;;;;;8.93;6.60;;;;;;;;;;4957794;28;20069;-63
2022/04/06 09:03:49;;;;;;;10.88;7.25;;;;;;;;;;4957783;28;20047;-63
2022/04/06 09:06:18;;;;;;;9.88;6.85;;;;;;;;;;4958172;28;20083;-63
2022/04/06 09:08:48;;;;;;;12.82;7.07;;;;;;;;;;4957937;28;20051;-64
2022/04/06 09:11:23;;;;;;;10.88;7.18;;;;;;;;;;4957969;28;20043;-64
2022/04/06 09:14:02;;;;;;;9.63;6.25;;;;;;;;;;4958730;28;20050;-64
2022/04/06 09:16:31;;;;;;;11.15;6.80;;;;;;;;;;4957414;28;20391;-64
2022/04/06 09:19:07;;;;;;;11.38;6.80;;;;;;;;;;4957286;28;20542;-64
2022/04/06 09:21:51;;;;;;;12.13;7.97;;;;;;;;;;4957536;28;20051;-64
2022/04/06 09:24:23;;;;;;;14.48;6.32;;;;;;;;;;4957402;28;20555;-64
2022/04/06 09:26:58;;;;;;;10.85;7.10;;;;;;;;;;4957621;28;20438;-64
2022/04/06 09:29:27;;;;;;;8.00;5.85;;;;;;;;;;4957408;28;20106;-64
2022/04/06 09:31:54;;;;;;;8.40;5.47;;;;;;;;;;4956134;28;20055;-64
2022/04/06 09:34:22;;;;;;;8.60;6.10;;;;;;;;;;4957280;28;20039;-64
2022/04/06 09:36:56;;;;;;;7.95;5.18;;;;;;;;;;4957100;28;20051;-65
2022/04/06 09:39:43;;;;;;;8.30;5.45;;;;;;;;;;4957042;28;20047;-64
2022/04/06 09:42:21;;;;;;;7.50;4.90;;;;;;;;;;4956228;28;20134;-64
2022/04/06 09:47:39;;;;;;;8.82;4.30;;;;;;;;;;4956847;29;20159;-64
2022/04/06 09:50:31;;;;;;;5.63;4.30;;;;;;;;;;4957022;28;20047;-64
2022/04/06 09:53:04;;;;;;;6.72;4.40;;;;;;;;;;4957499;28;20042;-64
2022/04/06 09:55:36;;;;;;;6.68;4.70;;;;;;;;;;4957108;28;20043;-63
2022/04/06 09:58:07;;;;;;;7.82;4.97;;;;;;;;;;4955412;28;20094;-64
2022/04/06 10:00:37;;;;;;;7.35;4.88;;;;;;;;;;4956574;28;20502;-64
2022/04/06 10:03:10;;;;;;;8.63;6.10;;;;;;;;;;4957030;28;20490;-63
2022/04/06 10:05:40;;;;;;;8.80;5.10;;;;;;;;;;4956853;28;20046;-64
2022/04/06 10:08:10;;;;;;;9.02;5.03;;;;;;;;;;4956444;28;20050;-64
2022/04/06 10:10:40;;;;;;;9.10;5.10;;;;;;;;;;4956147;28;20070;-67
2022/04/06 10:13:08;;;;;;;9.35;5.60;;;;;;;;;;4955820;28;20130;-68
2022/04/06 10:16:28;;;;;;;8.68;5.95;;;;;;;;;;4955962;28;20126;-67
2022/04/06 10:18:58;;;;;;;9.15;5.25;;;;;;;;;;4955072;29;20383;-68
2022/04/06 10:21:31;;;;;;;6.65;4.65;;;;;;;;;;4956227;29;20118;-68
2022/04/06 10:24:12;;;;;;;9.50;5.20;;;;;;;;;;4956300;28;20057;-67
2022/04/06 10:26:44;;;;;;;9.55;5.10;;;;;;;;;;4956381;28;20047;-68
2022/04/06 10:29:12;;;;;;;7.47;5.60;;;;;;;;;;4956204;28;20039;-67
2022/04/06 10:31:40;;;;;;;7.65;5.28;;;;;;;;;;4956375;28;20457;-68
2022/04/06 10:34:37;;;;;;;10.55;6.18;;;;;;;;;;4955956;28;20043;-67
2022/04/06 10:37:11;;;;;;;7.50;5.13;;;;;;;;;;4956114;28;20071;-67
2022/04/06 10:39:57;;;;;;;8.15;6.18;;;;;;;;;;4956156;28;20043;-67
2022/04/06 10:42:28;;;;;;;6.82;4.63;;;;;;;;;;4956370;28;20493;-68
2022/04/06 10:44:56;;;;;;;5.28;4.22;;;;;;;;;;4956034;28;20075;-67
2022/04/06 10:47:25;;;;;;;7.82;4.82;;;;;;;;;;4955781;28;20043;-67
2022/04/06 10:50:07;;;;;;;9.38;5.95;;;;;;;;;;4955930;29;20446;-68
2022/04/06 10:52:35;;;;;;;7.13;4.88;;;;;;;;;;4955983;28;20496;-68
2022/04/06 10:55:09;;;;;;;8.15;4.53;;;;;;;;;;4955660;28;20097;-67
2022/04/06 10:57:57;;;;;;;6.38;4.50;;;;;;;;;;4955577;28;20067;-67
2022/04/06 11:00:30;;;;;;;7.43;4.30;;;;;;;;;;4956178;28;20074;-67
2022/04/06 11:03:18;;;;;;;7.75;4.80;;;;;;;;;;4955921;28;20055;-68
2022/04/06 11:05:49;;;;;;;8.25;5.63;;;;;;;;;;4955781;28;20054;-68
2022/04/06 11:11:44;;;;;;;10.02;7.10;;;;;;;;;;4955822;29;20158;-68
2022/04/06 11:14:13;;;;;;;15.43;11.18;;;;;;;;;;4955251;28;20086;-68
2022/04/06 11:16:47;;;;;;;10.80;8.32;;;;;;;;;;4955976;28;20047;-68
2022/04/06 11:19:15;;;;;;;10.80;6.43;;;;;;;;;;4955711;28;20462;-68
2022/04/06 11:22:11;;;;;;;8.10;6.32;;;;;;;;;;4955547;28;20043;-68
2022/04/06 11:24:41;;;;;;;7.65;3.80;;;;;;;;;;4954880;29;20607;-68
2022/04/06 11:27:08;;;;;;;11.32;7.78;;;;;;;;;;4955314;28;20561;-68
2022/04/06 11:29:44;;;;;;;10.10;7.32;;;;;;;;;;4955121;28;20043;-68
2022/04/06 11:32:12;;;;;;;7.40;4.40;;;;;;;;;;4954768;28;20094;-68
2022/04/06 11:34:40;;;;;;;6.75;3.20;;;;;;;;;;4955066;28;20050;-68
2022/04/06 11:37:19;;;;;;;4.35;2.85;;;;;;;;;;4954663;28;20051;-68
2022/04/06 11:39:49;;;;;;;4.65;3.20;;;;;;;;;;4955315;28;20117;-67
2022/04/06 11:42:17;;;;;;;6.60;4.55;;;;;;;;;;4955150;28;20047;-68
2022/04/06 11:44:58;;;;;;;3.58;2.40;;;;;;;;;;4955231;28;20047;-67
2022/04/06 11:47:34;;;;;;;20.35;10.35;;;;;;;;;;4955391;28;20051;-68
2022/04/06 11:50:13;;;;;;;7.75;4.68;;;;;;;;;;4955546;28;20043;-68
2022/04/06 11:52:46;;;;;;;3.78;2.97;;;;;;;;;;4955017;28;20116;-68
2022/04/06 11:55:15;;;;;;;16.90;13.40;;;;;;;;;;4955072;28;20419;-68
2022/04/06 11:57:45;;;;;;;8.40;4.28;;;;;;;;;;4954707;28;20494;-68
2022/04/06 12:00:19;;;;;;;28.00;20.35;;;;;;;;;;4955046;28;20389;-67
2022/04/06 12:02:50;;;;;;;32.70;26.33;;;;;;;;;;4955070;28;20047;-68
2022/04/06 12:05:21;;;;;;;9.70;7.47;;;;;;;;;;4957478;28;20498;-68
2022/04/06 12:08:27;;;;;;;9.50;8.13;;;;;;;;;;4958974;28;20043;-68
2022/04/06 12:10:57;;;;;;;26.60;20.85;;;;;;;;;;4954606;28;20066;-68
2022/04/06 12:13:29;;;;;;;20.88;6.53;;;;;;;;;;4958701;28;20074;-68
2022/04/06 12:15:58;;;;;;;28.23;20.63;;;;;;;;;;4958454;28;20074;-68
2022/04/06 12:18:32;;;;;;;10.68;6.28;;;;;;;;;;4958481;28;20081;-68
2022/04/06 12:21:01;;;;;;;5.80;2.17;;;;;;;;;;4958889;28;20063;-68
2022/04/06 12:23:31;;;;;;;4.75;2.30;;;;;;;;;;4958259;28;20050;-68
2022/04/06 12:26:09;;;;;;;6.68;3.17;;;;;;;;;;4958403;28;20047;-69
2022/04/06 12:28:37;;;;;;;3.03;1.98;;;;;;;;;;4958699;28;20110;-68
2022/04/06 12:31:29;;;;;;;5.82;3.55;;;;;;;;;;4958157;28;20406;-69
2022/04/06 12:34:03;;;;;;;9.48;7.13;;;;;;;;;;4958546;28;20422;-69
2022/04/06 12:36:31;;;;;;;2.85;2.20;;;;;;;;;;4958290;28;20047;-69
2022/04/06 12:39:13;;;;;;;2.47;2.03;;;;;;;;;;4958415;28;20039;-69
2022/04/06 12:41:51;;;;;;;6.90;5.18;;;;;;;;;;4958093;28;20118;-69
2022/04/06 12:44:20;;;;;;;1.90;1.63;;;;;;;;;;4958425;28;20051;-69
2022/04/06 12:50:21;;;;;;;13.38;9.88;;;;;;;;;;4957887;28;20047;-68
2022/04/06 12:53:03;;;;;;;3.45;3.03;;;;;;;;;;4957558;28;20138;-69
2022/04/06 12:55:33;;;;;;;19.40;15.25;;;;;;;;;;4957954;28;20159;-69
2022/04/06 12:58:15;;;;;;;2.63;2.15;;;;;;;;;;4958041;28;20063;-69
2022/04/06 13:00:43;;;;;;;3.42;2.00;;;;;;;;;;4957773;28;20035;-69
2022/04/06 13:03:36;;;;;;;24.02;20.45;;;;;;;;;;4957870;28;20611;-69
2022/04/06 13:06:09;;;;;;;6.50;4.38;;;;;;;;;;4957737;28;20047;-69
2022/04/06 13:08:46;;;;;;;4.07;1.83;;;;;;;;;;4957668;28;20458;-69
2022/04/06 13:11:33;;;;;;;2.05;1.63;;;;;;;;;;4957683;28;20118;-69
2022/04/06 13:14:02;;;;;;;5.18;2.53;;;;;;;;;;4957343;28;20048;-68
2022/04/06 13:16:36;;;;;;;11.10;8.95;;;;;;;;;;4956391;28;20078;-69
2022/04/06 13:19:07;;;;;;;2.50;1.83;;;;;;;;;;4956314;29;20043;-69
2022/04/06 13:21:37;;;;;;;5.88;4.13;;;;;;;;;;4957413;28;20066;-69
2022/04/06 13:24:10;;;;;;;5.75;2.85;;;;;;;;;;4957758;28;20051;-69
2022/04/06 13:26:39;;;;;;;4.32;2.55;;;;;;;;;;4957378;28;20074;-68
2022/04/06 13:29:08;;;;;;;7.10;5.15;;;;;;;;;;4957027;28;20073;-68
2022/04/06 13:31:39;;;;;;;3.50;2.20;;;;;;;;;;4956690;28;20098;-69
2022/04/06 13:34:08;;;;;;;12.98;10.15;;;;;;;;;;4943088;28;20127;-68
2022/04/06 13:37:07;;;;;;;4.18;2.03;;;;;;;;;;4937506;29;20051;-68
2022/04/06 13:39:35;;;;;;;3.05;1.75;;;;;;;;;;4938102;29;20435;-68
2022/04/06 13:42:11;;;;;;;3.80;2.75;;;;;;;;;;4937576;29;20040;-69
2022/04/06 13:44:41;;;;;;;5.53;4.63;;;;;;;;;;4937506;29;20522;-69
2022/04/06 13:47:09;;;;;;;2.20;1.75;;;;;;;;;;4945413;29;20051;-68
2022/04/06 13:49:37;;;;;;;4.75;2.80;;;;;;;;;;4952221;29;20105;-68
2022/04/06 13:52:12;;;;;;;3.83;2.20;;;;;;;;;;4958051;28;20122;-69
2022/04/06 13:54:39;;;;;;;2.90;2.20;;;;;;;;;;4957035;28;20035;-69
2022/04/06 13:57:08;;;;;;;2.50;1.90;;;;;;;;;;4951006;28;20036;-68
2022/04/06 13:59:41;;;;;;;3.05;2.00;;;;;;;;;;4937321;29;20048;-67
2022/04/06 14:02:16;;;;;;;3.60;2.72;;;;;;;;;;4952294;29;20075;-70
2022/04/06 14:04:44;;;;;;;3.90;1.92;;;;;;;;;;4937376;29;20071;-70
2022/04/06 14:07:17;;;;;;;4.22;2.40;;;;;;;;;;4937893;29;20049;-70
2022/04/06 14:09:46;;;;;;;2.83;2.13;;;;;;;;;;4936111;28;20047;-70
2022/04/06 14:12:16;;;;;;;2.42;1.70;;;;;;;;;;4937532;29;20059;-71
2022/04/06 14:15:09;;;;;;;2.63;1.95;;;;;;;;;;4937363;29;20071;-71
2022/04/06 14:17:42;;;;;;;7.30;3.55;;;;;;;;;;4937212;29;20042;-71
2022/04/06 14:20:19;;;;;;;4.03;1.65;;;;;;;;;;4937484;29;20052;-70
2022/04/06 14:22:48;;;;;;;5.45;2.50;;;;;;;;;;4937646;29;20048;-73
2022/04/06 14:25:16;;;;;;;6.03;2.88;;;;;;;;;;4937064;29;20044;-69
2022/04/06 14:27:49;;;;;;;2.85;1.85;;;;;;;;;;4935242;28;20507;-70
2022/04/06 14:30:21;;;;;;;3.38;1.73;;;;;;;;;;4937284;29;20074;-70
2022/04/06 14:32:49;;;;;;;11.15;2.78;;;;;;;;;;4936492;29;20087;-71
2022/04/06 14:35:17;;;;;;;2.85;1.92;;;;;;;;;;4941293;29;20051;-69
2022/04/06 14:37:46;;;;;;;4.50;2.30;;;;;;;;;;4955734;28;20043;-69
2022/04/06 14:40:15;;;;;;;3.65;1.90;;;;;;;;;;4955748;28;20046;-69
2022/04/06 14:42:45;;;;;;;3.47;2.80;;;;;;;;;;4955825;28;20101;-69
2022/04/06 14:45:18;;;;;;;3.55;2.20;;;;;;;;;;4955764;28;20513;-69
2022/04/06 14:47:54;;;;;;;2.03;1.65;;;;;;;;;;4956390;28;20043;-69
2022/04/06 14:50:25;;;;;;;3.03;2.35;;;;;;;;;;4955786;28;20094;-69
2022/04/06 14:52:55;;;;;;;4.55;2.35;;;;;;;;;;4955927;28;20047;-70
2022/04/06 14:55:23;;;;;;;3.85;2.88;;;;;;;;;;4955409;28;20051;-69
2022/04/06 14:57:53;;;;;;;5.22;3.08;;;;;;;;;;4955671;28;20114;-70
2022/04/06 15:00:23;;;;;;;2.95;2.03;;;;;;;;;;4955405;28;20047;-70
2022/04/06 15:02:51;;;;;;;8.65;2.58;;;;;;;;;;4955426;28;20054;-69
2022/04/06 15:05:19;;;;;;;5.78;2.72;;;;;;;;;;4955371;28;20031;-69
2022/04/06 15:07:48;;;;;;;4.93;3.10;;;;;;;;;;4955454;28;20051;-69
2022/04/06 15:10:15;;;;;;;4.35;3.08;;;;;;;;;;4953627;28;20055;-70
2022/04/06 15:12:44;;;;;;;3.60;2.03;;;;;;;;;;4951802;29;20139;-69
2022/04/06 15:15:40;;;;;;;3.20;1.90;;;;;;;;;;4955692;28;20044;-69
2022/04/06 15:21:50;;;;;;;15.45;11.32;;;;;;;;;;4955285;28;20035;-69
2022/04/06 15:24:43;;;;;;;9.00;5.93;;;;;;;;;;4953981;29;20129;-69
2022/04/06 15:27:36;;;;;;;5.75;2.88;;;;;;;;;;4954024;29;20110;-68